createdAt,value
2019-02-18T00:02:25.227Z,70.96
2019-02-18T00:06:30.650Z,73.01
2019-02-18T00:10:36.437Z,71.92
2019-02-18T00:14:42.256Z,72.59
2019-02-18T00:18:47.713Z,72.74
2019-02-18T00:22:53.532Z,72.23
2019-02-18T00:26:58.907Z,71.73
2019-02-18T00:31:04.269Z,72.27
2019-02-18T00:35:09.695Z,72.60
2019-02-18T00:39:15.227Z,73.36
2019-02-18T00:43:20.611Z,72.08
2019-02-18T00:47:26.070Z,72.82
2019-02-18T00:51:31.333Z,71.81
2019-02-18T00:55:36.764Z,71.32
2019-02-18T00:59:42.189Z,71.10
2019-02-18T01:03:47.643Z,72.24
2019-02-18T01:07:53.047Z,69.97
2019-02-18T01:11:58.929Z,70.04
2019-02-18T01:16:04.366Z,69.17
2019-02-18T01:20:11.155Z,69.65
2019-02-18T01:24:16.524Z,69.11
2019-02-18T01:28:21.988Z,69.12
2019-02-18T01:32:27.333Z,69.07
2019-02-18T01:36:32.717Z,70.46
2019-02-18T01:40:38.091Z,68.65
2019-02-18T01:44:43.480Z,68.10
2019-02-18T01:48:48.868Z,66.92
2019-02-18T01:52:54.203Z,69.19
2019-02-18T01:57:00.273Z,69.89
2019-02-18T02:01:07.613Z,70.14
2019-02-18T02:05:14.953Z,69.00
2019-02-18T02:09:20.381Z,70.37
2019-02-18T02:13:37.211Z,70.38
2019-02-18T02:17:42.626Z,69.65
2019-02-18T02:21:48.006Z,70.08
2019-02-18T02:25:53.339Z,71.37
2019-02-18T02:29:59.162Z,72.15
2019-02-18T02:34:04.591Z,71.75
2019-02-18T02:38:10.020Z,71.52
2019-02-18T02:42:15.729Z,69.40
2019-02-18T02:46:21.058Z,70.49
2019-02-18T02:50:26.501Z,71.18
2019-02-18T02:54:32.019Z,71.54
2019-02-18T02:58:37.461Z,72.34
2019-02-18T03:02:42.944Z,72.59
2019-02-18T03:06:48.373Z,72.75
2019-02-18T03:10:53.977Z,73.16
2019-02-18T03:14:59.332Z,73.42
2019-02-18T03:19:04.673Z,72.88
2019-02-18T03:23:10.048Z,73.53
2019-02-18T03:27:15.403Z,72.75
2019-02-18T03:31:25.745Z,73.79
2019-02-18T03:35:31.180Z,73.07
2019-02-18T03:39:36.387Z,73.59
2019-02-18T03:43:42.002Z,73.97
2019-02-18T03:47:47.445Z,73.32
2019-02-18T03:51:53.077Z,72.96
2019-02-18T03:55:58.618Z,73.91
2019-02-18T04:00:04.855Z,73.62
2019-02-18T04:04:10.340Z,72.94
2019-02-18T04:08:16.245Z,73.08
2019-02-18T04:12:21.595Z,73.61
2019-02-18T04:16:27.324Z,73.81
2019-02-18T04:20:32.984Z,74.56
2019-02-18T04:24:38.779Z,74.55
2019-02-18T04:28:44.123Z,75.30
2019-02-18T04:32:49.513Z,75.87
2019-02-18T04:36:54.798Z,76.00
2019-02-18T04:41:00.849Z,76.60
2019-02-18T04:45:07.052Z,76.63
2019-02-18T04:49:12.643Z,76.39
2019-02-18T04:53:17.991Z,76.65
2019-02-18T04:57:23.381Z,77.21
2019-02-18T05:01:28.807Z,76.87
2019-02-18T05:05:34.088Z,76.89
2019-02-18T05:09:40.210Z,77.80
2019-02-18T05:14:04.930Z,77.30
2019-02-18T05:18:10.281Z,77.85
2019-02-18T05:22:15.710Z,78.17
2019-02-18T05:26:21.151Z,77.44
2019-02-18T05:30:26.459Z,76.91
2019-02-18T05:34:31.645Z,77.02
2019-02-18T05:38:36.896Z,77.49
2019-02-18T05:42:42.337Z,77.71
2019-02-18T05:46:47.600Z,76.75
2019-02-18T05:50:52.939Z,76.29
2019-02-18T05:54:58.217Z,76.20
2019-02-18T05:59:03.622Z,75.78
2019-02-18T06:03:09.053Z,75.64
2019-02-18T06:07:14.831Z,76.05
2019-02-18T06:11:20.345Z,76.09
2019-02-18T06:15:25.588Z,76.14
2019-02-18T06:19:31.389Z,76.10
2019-02-18T06:23:36.953Z,75.92
2019-02-18T06:27:42.308Z,76.07
2019-02-18T06:31:47.474Z,75.23
2019-02-18T06:35:53.368Z,75.41
2019-02-18T06:39:58.735Z,75.34
2019-02-18T06:44:04.090Z,75.96
2019-02-18T06:48:23.497Z,76.06
2019-02-18T06:52:29.150Z,76.16
2019-02-18T06:57:02.762Z,74.73
2019-02-18T07:01:19.008Z,75.62
2019-02-18T07:05:33.607Z,76.10
2019-02-18T07:09:51.708Z,76.43
2019-02-18T07:13:57.198Z,76.57
2019-02-18T07:18:02.622Z,75.88
2019-02-18T07:22:08.434Z,75.01
2019-02-18T07:26:13.831Z,74.36
2019-02-18T07:30:19.765Z,73.62
2019-02-18T07:34:25.534Z,73.68
2019-02-18T07:38:31.071Z,73.96
2019-02-18T07:42:36.337Z,72.50
2019-02-18T07:46:42.312Z,72.11
2019-02-18T07:50:47.727Z,71.06
2019-02-18T07:54:53.399Z,70.66
2019-02-18T07:58:58.752Z,70.66
2019-02-18T08:03:04.033Z,69.44
2019-02-18T08:07:09.638Z,68.32
2019-02-18T08:11:14.940Z,67.59
2019-02-18T08:15:20.381Z,66.74
2019-02-18T08:19:25.744Z,67.13
2019-02-18T08:23:31.098Z,65.93
2019-02-18T08:27:36.768Z,64.03
2019-02-18T08:31:42.204Z,63.72
2019-02-18T08:35:47.562Z,61.62
2019-02-18T08:39:52.922Z,62.11
2019-02-18T08:43:58.315Z,63.42
2019-02-18T08:48:04.181Z,60.42
2019-02-18T08:52:09.814Z,61.45
2019-02-18T08:56:15.269Z,58.30
2019-02-18T09:00:21.168Z,60.59
2019-02-18T09:04:28.155Z,59.61
2019-02-18T09:08:34.066Z,57.73
2019-02-18T09:12:39.974Z,57.11
2019-02-18T09:16:45.327Z,55.40
2019-02-18T09:20:50.652Z,56.52
2019-02-18T09:25:07.564Z,56.08
2019-02-18T09:29:12.983Z,56.19
2019-02-18T09:33:18.346Z,54.16
2019-02-18T09:37:24.074Z,52.77
2019-02-18T09:41:29.571Z,53.27
2019-02-18T09:45:35.076Z,53.43
2019-02-18T09:49:40.732Z,53.64
2019-02-18T09:53:46.004Z,51.83
2019-02-18T09:57:51.727Z,51.15
2019-02-18T10:01:57.105Z,51.22
2019-02-18T10:06:02.612Z,52.66
2019-02-18T10:10:08.380Z,51.71
2019-02-18T10:14:13.792Z,51.42
2019-02-18T10:18:19.223Z,49.88
2019-02-18T10:22:24.573Z,48.15
2019-02-18T10:26:30.021Z,47.78
2019-02-18T10:30:35.297Z,49.32
2019-02-18T10:34:40.831Z,48.38
2019-02-18T10:38:46.187Z,49.02
2019-02-18T10:42:51.633Z,48.57
2019-02-18T10:46:57.096Z,46.99
2019-02-18T10:51:02.850Z,46.52
2019-02-18T10:55:08.968Z,49.10
2019-02-18T10:59:14.793Z,45.55
2019-02-18T11:03:20.672Z,44.67
2019-02-18T11:07:26.137Z,44.62
2019-02-18T11:11:31.551Z,45.08
2019-02-18T11:15:36.919Z,44.31
2019-02-18T11:19:42.347Z,46.10
2019-02-18T11:23:47.737Z,44.94
2019-02-18T11:27:53.107Z,44.24
2019-02-18T11:32:00.429Z,44.01
2019-02-18T11:36:05.881Z,44.46
2019-02-18T11:40:13.945Z,42.34
2019-02-18T11:44:19.655Z,42.18
2019-02-18T11:48:25.003Z,41.99
2019-02-18T11:52:30.725Z,41.92
2019-02-18T11:56:36.518Z,41.75
2019-02-18T12:00:42.042Z,41.39
2019-02-18T12:04:47.410Z,41.52
2019-02-18T12:08:52.836Z,39.14
2019-02-18T12:12:58.651Z,40.19
2019-02-18T12:17:04.081Z,38.32
2019-02-18T12:21:09.545Z,37.17
2019-02-18T12:25:15.113Z,37.84
2019-02-18T12:29:26.133Z,36.27
2019-02-18T12:33:28.616Z,36.17
2019-02-18T12:37:34.376Z,37.53
2019-02-18T12:41:48.324Z,32.44
2019-02-18T12:45:47.032Z,34.60
2019-02-18T12:49:52.913Z,31.37
2019-02-18T12:54:04.936Z,33.77
2019-02-18T12:58:06.105Z,30.65
2019-02-18T13:02:11.546Z,29.32
2019-02-18T13:06:17.004Z,28.34
2019-02-18T13:10:22.507Z,28.93
2019-02-18T13:14:27.942Z,33.29
2019-02-18T13:18:33.370Z,29.46
2019-02-18T13:22:38.823Z,29.75
2019-02-18T13:26:44.274Z,30.22
2019-02-18T13:30:49.640Z,30.17
2019-02-18T13:34:55.057Z,29.35
2019-02-18T13:39:00.496Z,29.83
2019-02-18T13:43:06.229Z,31.07
2019-02-18T13:47:11.631Z,30.79
2019-02-18T13:51:24.061Z,32.31
2019-02-18T13:55:24.553Z,32.30
2019-02-18T13:59:29.998Z,34.15
2019-02-18T14:03:35.663Z,35.07
2019-02-18T14:07:41.029Z,34.90
2019-02-18T14:11:46.806Z,35.10
2019-02-18T14:15:52.244Z,35.41
2019-02-18T14:19:58.185Z,36.40
2019-02-18T14:24:03.555Z,35.56
2019-02-18T14:28:08.907Z,34.88
2019-02-18T14:32:14.576Z,36.05
2019-02-18T14:36:20.012Z,35.83
2019-02-18T14:40:25.841Z,37.17
2019-02-18T14:44:31.274Z,36.77
2019-02-18T14:48:36.888Z,37.41
2019-02-18T14:52:42.615Z,35.73
2019-02-18T14:56:48.047Z,35.86
2019-02-18T15:00:53.667Z,35.05
2019-02-18T15:04:59.074Z,33.71
2019-02-18T15:09:05.636Z,34.05
2019-02-18T15:13:11.063Z,34.82
2019-02-18T15:17:16.522Z,32.86
2019-02-18T15:21:21.717Z,33.92
2019-02-18T15:25:27.267Z,33.91
2019-02-18T15:29:32.695Z,35.05
2019-02-18T15:33:38.165Z,33.92
2019-02-18T15:37:43.953Z,34.69
2019-02-18T15:41:49.440Z,34.35
2019-02-18T15:45:55.611Z,34.46
2019-02-18T15:50:01.280Z,33.29
2019-02-18T15:54:08.115Z,37.58
2019-02-18T15:58:13.546Z,35.52
2019-02-18T16:02:19.074Z,36.09
2019-02-18T16:06:24.875Z,36.19
2019-02-18T16:10:30.701Z,41.78
2019-02-18T16:14:36.229Z,41.89
2019-02-18T16:18:42.022Z,44.13
2019-02-18T16:22:47.659Z,43.71
2019-02-18T16:26:53.521Z,45.09
2019-02-18T16:30:59.132Z,45.88
2019-02-18T16:35:04.844Z,45.09
2019-02-18T16:39:10.990Z,40.91
2019-02-18T16:43:16.445Z,42.19
2019-02-18T16:47:21.898Z,39.22
2019-02-18T16:51:27.490Z,41.79
2019-02-18T16:55:32.874Z,39.82
2019-02-18T16:59:38.122Z,42.03
2019-02-18T17:03:43.559Z,41.65
2019-02-18T17:07:48.999Z,42.51
2019-02-18T17:11:54.440Z,45.01
2019-02-18T17:15:59.719Z,44.12
2019-02-18T17:20:05.891Z,46.21
2019-02-18T17:24:11.589Z,44.25
2019-02-18T17:28:17.091Z,47.52
2019-02-18T17:32:22.559Z,45.82
2019-02-18T17:36:27.932Z,48.97
2019-02-18T17:40:34.104Z,49.02
2019-02-18T17:44:41.718Z,49.12
2019-02-18T17:48:47.342Z,49.80
2019-02-18T17:52:53.166Z,49.40
2019-02-18T17:56:59.194Z,51.33
2019-02-18T18:01:04.616Z,51.56
2019-02-18T18:05:10.537Z,53.11
2019-02-18T18:09:16.222Z,52.61
2019-02-18T18:13:25.094Z,52.47
2019-02-18T18:17:29.181Z,52.85
2019-02-18T18:21:35.197Z,53.81
2019-02-18T18:25:40.904Z,53.76
2019-02-18T18:29:46.523Z,54.53
2019-02-18T18:33:52.268Z,54.53
2019-02-18T18:37:57.823Z,55.59
2019-02-18T18:42:03.381Z,55.13
2019-02-18T18:46:08.927Z,54.42
2019-02-18T18:50:16.964Z,54.42
2019-02-18T18:54:22.720Z,52.80
2019-02-18T18:58:28.147Z,54.20
2019-02-18T19:02:33.544Z,53.68
2019-02-18T19:06:38.905Z,54.97
2019-02-18T19:10:44.311Z,54.96
2019-02-18T19:14:49.761Z,55.62
2019-02-18T19:18:55.197Z,55.80
2019-02-18T19:23:01.657Z,56.00
2019-02-18T19:27:07.070Z,56.91
2019-02-18T19:31:12.604Z,57.46
2019-02-18T19:35:18.375Z,58.06
2019-02-18T19:39:23.806Z,58.85
2019-02-18T19:43:29.187Z,58.91
2019-02-18T19:47:35.032Z,59.66
2019-02-18T19:51:40.503Z,60.02
2019-02-18T19:55:46.061Z,60.30
2019-02-18T19:59:51.530Z,60.96
2019-02-18T20:03:57.361Z,61.31
2019-02-18T20:08:02.812Z,60.85
2019-02-18T20:12:08.221Z,61.32
2019-02-18T20:16:13.643Z,60.98
2019-02-18T20:20:19.021Z,61.27
2019-02-18T20:24:24.447Z,62.55
2019-02-18T20:28:29.877Z,62.33
2019-02-18T20:32:35.356Z,62.23
2019-02-18T20:36:41.891Z,63.12
2019-02-18T20:40:47.883Z,62.52
2019-02-18T20:44:53.226Z,62.15
2019-02-18T20:48:58.684Z,62.58
2019-02-18T20:53:04.122Z,62.79
2019-02-18T20:57:09.508Z,62.61
2019-02-18T21:01:14.867Z,63.80
2019-02-18T21:05:20.665Z,64.64
2019-02-18T21:09:26.132Z,65.54
2019-02-18T21:13:31.610Z,65.53
2019-02-18T21:17:37.389Z,66.09
2019-02-18T21:21:43.159Z,66.43
2019-02-18T21:25:48.512Z,66.42
2019-02-18T21:29:54.017Z,66.30
2019-02-18T21:33:59.485Z,66.30
2019-02-18T21:38:04.965Z,67.06
2019-02-18T21:42:12.432Z,67.64
2019-02-18T21:46:17.881Z,67.30
2019-02-18T21:50:23.341Z,67.57
2019-02-18T21:54:28.805Z,67.56
2019-02-18T21:58:34.501Z,67.36
2019-02-18T22:02:40.171Z,68.30
2019-02-18T22:06:45.619Z,69.23
2019-02-18T22:10:51.050Z,68.66
2019-02-18T22:14:56.867Z,69.25
2019-02-18T22:19:02.196Z,69.97
2019-02-18T22:23:07.655Z,70.53
2019-02-18T22:27:13.381Z,70.86
2019-02-18T22:31:18.834Z,70.93
2019-02-18T22:35:24.208Z,71.19
2019-02-18T22:39:29.555Z,71.36
2019-02-18T22:43:34.982Z,70.37
2019-02-18T22:47:40.677Z,72.08
2019-02-18T22:51:46.131Z,71.36
2019-02-18T22:55:51.497Z,71.17
2019-02-18T22:59:57.201Z,71.27
2019-02-18T23:04:02.706Z,71.59
2019-02-18T23:08:08.143Z,71.51
2019-02-18T23:12:13.478Z,71.59
2019-02-18T23:16:19.249Z,72.04
2019-02-18T23:20:24.670Z,71.57
2019-02-18T23:24:30.461Z,72.14
2019-02-18T23:28:35.817Z,72.34
2019-02-18T23:32:41.440Z,73.83
2019-02-18T23:36:47.241Z,72.89
2019-02-18T23:40:52.597Z,73.44
2019-02-18T23:44:59.481Z,72.70
2019-02-18T23:49:05.101Z,72.89
2019-02-18T23:53:10.887Z,72.69
2019-02-18T23:57:16.067Z,72.67
